createdAt,value
2022-08-23T00:01:00.652Z,94907.28
2022-08-23T00:04:13.218Z,94913.38
2022-08-23T00:07:21.476Z,94921.88
2022-08-23T00:10:31.428Z,94912.72
2022-08-23T00:13:47.312Z,94911.16
2022-08-23T00:16:58.398Z,94913.03
2022-08-23T00:20:10.537Z,94915.38
2022-08-23T00:23:18.781Z,94920.38
2022-08-23T00:26:28.686Z,94911.94
2022-08-23T00:29:40.005Z,94908.22
2022-08-23T00:32:48.181Z,94904.84
2022-08-23T00:35:56.701Z,94906.16
2022-08-23T00:39:05.436Z,94902.72
2022-08-23T00:42:47.609Z,94900.50
2022-08-23T00:46:26.747Z,94909.09
2022-08-23T00:49:38.806Z,94909.09
2022-08-23T00:53:01.048Z,94902.78
2022-08-23T00:56:14.430Z,94901.69
2022-08-23T00:59:24.283Z,94897.28
2022-08-23T01:02:32.521Z,94906.75
2022-08-23T01:05:52.685Z,94904.50
2022-08-23T01:09:07.046Z,94902.84
2022-08-23T01:12:30.409Z,94904.81
2022-08-23T01:15:48.075Z,94904.81
2022-08-23T01:18:57.849Z,94901.56
2022-08-23T01:22:14.487Z,94903.03
2022-08-23T01:25:27.194Z,94897.00
2022-08-23T01:28:36.462Z,94905.69
2022-08-23T01:31:45.233Z,94891.75
2022-08-23T01:34:53.644Z,94896.03
2022-08-23T01:38:03.100Z,94894.09
2022-08-23T01:41:13.005Z,94899.38
2022-08-23T01:44:21.475Z,94898.34
2022-08-23T01:47:29.658Z,94907.78
2022-08-23T01:50:38.655Z,94906.00
2022-08-23T01:53:47.436Z,94903.56
2022-08-23T01:56:57.789Z,94900.50
2022-08-23T02:00:08.707Z,94912.59
2022-08-23T02:03:21.844Z,94911.09
2022-08-23T02:06:31.722Z,94910.78
2022-08-23T02:09:40.658Z,94916.13
2022-08-23T02:12:52.446Z,94921.09
2022-08-23T02:16:03.892Z,94911.56
2022-08-23T02:19:16.169Z,94916.00
2022-08-23T02:22:24.682Z,94920.56
2022-08-23T02:25:33.126Z,94919.44
2022-08-23T02:28:42.682Z,94921.91
2022-08-23T02:31:51.567Z,94915.16
2022-08-23T02:38:26.004Z,94934.53
2022-08-23T02:41:35.001Z,94929.09
2022-08-23T02:44:45.403Z,94940.94
2022-08-23T02:47:53.877Z,94937.41
2022-08-23T02:51:09.708Z,94935.19
2022-08-23T02:54:18.292Z,94944.03
2022-08-23T02:57:26.705Z,94949.69
2022-08-23T03:00:39.081Z,94954.44
2022-08-23T03:03:48.134Z,94952.00
2022-08-23T03:06:56.607Z,94948.44
2022-08-23T03:10:07.126Z,94952.44
2022-08-23T03:13:19.523Z,94955.13
2022-08-23T03:16:31.583Z,94954.72
2022-08-23T03:19:39.893Z,94955.50
2022-08-23T03:22:54.370Z,94962.91
2022-08-23T03:26:08.286Z,94961.63
2022-08-23T03:29:18.922Z,94966.16
2022-08-23T03:32:40.581Z,94959.47
2022-08-23T03:36:00.929Z,94960.56
2022-08-23T03:39:10.185Z,94969.94
2022-08-23T03:42:18.386Z,94976.78
2022-08-23T03:45:29.519Z,94978.59
2022-08-23T03:48:39.972Z,94977.38
2022-08-23T03:51:48.180Z,94990.34
2022-08-23T03:54:56.373Z,94991.00
2022-08-23T03:58:04.972Z,94993.97
2022-08-23T04:01:13.201Z,94996.78
2022-08-23T04:04:23.612Z,95003.50
2022-08-23T04:07:52.046Z,94999.44
2022-08-23T04:11:03.825Z,95004.75
2022-08-23T04:14:13.396Z,95000.19
2022-08-23T04:17:21.919Z,95006.13
2022-08-23T04:20:32.433Z,95011.75
2022-08-23T04:23:46.550Z,95016.75
2022-08-23T04:26:56.083Z,95005.94
2022-08-23T04:30:05.985Z,95023.41
2022-08-23T04:33:18.185Z,95027.31
2022-08-23T04:36:34.607Z,95027.34
2022-08-23T04:40:00.968Z,95026.31
2022-08-23T04:43:16.832Z,95030.31
2022-08-23T04:46:25.484Z,95033.97
2022-08-23T04:49:35.272Z,95031.00
2022-08-23T04:52:45.172Z,95033.69
2022-08-23T04:55:53.329Z,95033.25
2022-08-23T04:59:01.713Z,95036.16
2022-08-23T05:02:10.083Z,95032.19
2022-08-23T05:05:19.202Z,95046.50
2022-08-23T05:08:29.265Z,95046.31
2022-08-23T05:11:37.743Z,95058.91
2022-08-23T05:14:47.962Z,95064.47
2022-08-23T05:17:57.559Z,95060.19
2022-08-23T05:21:06.695Z,95069.72
2022-08-23T05:24:16.944Z,95070.50
2022-08-23T05:27:27.846Z,95071.66
2022-08-23T05:30:36.082Z,95066.91
2022-08-23T05:33:46.329Z,95067.59
2022-08-23T05:36:57.082Z,95069.41
2022-08-23T05:40:18.856Z,95066.66
2022-08-23T05:43:42.130Z,95073.75
2022-08-23T05:46:50.330Z,95071.34
2022-08-23T05:50:15.185Z,95077.34
2022-08-23T05:53:23.916Z,95081.91
2022-08-23T05:56:37.241Z,95081.47
2022-08-23T05:59:45.458Z,95092.00
2022-08-23T06:02:53.656Z,95086.66
2022-08-23T06:06:03.925Z,95089.09
2022-08-23T06:09:16.092Z,95085.34
2022-08-23T06:12:26.230Z,95083.09
2022-08-23T06:15:34.529Z,95095.19
2022-08-23T06:18:43.072Z,95092.34
2022-08-23T06:22:23.454Z,95090.84
2022-08-23T06:25:32.155Z,95088.31
2022-08-23T06:28:57.540Z,95088.38
2022-08-23T06:32:10.459Z,95096.31
2022-08-23T06:35:39.235Z,95094.81
2022-08-23T06:39:14.352Z,95090.75
2022-08-23T06:42:48.656Z,95103.25
2022-08-23T06:46:17.029Z,95090.69
2022-08-23T06:49:27.695Z,95089.88
2022-08-23T06:52:37.006Z,95100.63
2022-08-23T06:56:05.179Z,95098.22
2022-08-23T06:59:36.910Z,95104.38
2022-08-23T07:02:46.582Z,95100.59
2022-08-23T07:06:16.725Z,95098.28
2022-08-23T07:09:25.172Z,95098.84
2022-08-23T07:12:33.811Z,95098.97
2022-08-23T07:15:41.949Z,95103.34
2022-08-23T07:18:55.451Z,95101.50
2022-08-23T07:22:06.180Z,95101.56
2022-08-23T07:25:14.821Z,95090.75
2022-08-23T07:28:28.061Z,95097.03
2022-08-23T07:31:44.115Z,95102.38
2022-08-23T07:34:55.019Z,95110.75
2022-08-23T07:38:04.797Z,95103.78
2022-08-23T07:41:18.676Z,95098.88
2022-08-23T07:44:27.348Z,95105.59
2022-08-23T07:47:36.228Z,95105.09
2022-08-23T07:50:57.906Z,95110.16
2022-08-23T07:54:11.071Z,95108.28
2022-08-23T07:57:29.109Z,95117.75
2022-08-23T08:01:16.341Z,95116.16
2022-08-23T08:04:29.049Z,95116.00
2022-08-23T08:07:42.300Z,95120.50
2022-08-23T08:10:56.268Z,95122.56
2022-08-23T08:14:10.489Z,95130.22
2022-08-23T08:17:27.622Z,95122.88
2022-08-23T08:20:59.229Z,95128.25
2022-08-23T08:24:39.615Z,95129.09
2022-08-23T08:27:52.221Z,95125.56
2022-08-23T08:31:00.632Z,95132.69
2022-08-23T08:34:10.475Z,95135.47
2022-08-23T08:37:18.699Z,95127.56
2022-08-23T08:40:37.537Z,95129.34
2022-08-23T08:44:04.798Z,95135.16
2022-08-23T08:47:22.016Z,95140.13
2022-08-23T08:50:37.756Z,95137.59
2022-08-23T08:53:50.433Z,95139.03
2022-08-23T08:57:27.551Z,95142.72
2022-08-23T09:00:39.866Z,95138.47
2022-08-23T09:03:50.830Z,95139.72
2022-08-23T09:07:13.056Z,95139.34
2022-08-23T09:11:06.498Z,95135.13
2022-08-23T09:14:43.711Z,95135.97
2022-08-23T09:17:55.903Z,95134.78
2022-08-23T09:21:09.261Z,95124.16
2022-08-23T09:24:17.978Z,95132.31
2022-08-23T09:27:52.245Z,95130.28
2022-08-23T09:31:02.623Z,95128.44
2022-08-23T09:34:20.785Z,95126.31
2022-08-23T09:38:16.969Z,95125.88
2022-08-23T09:41:36.552Z,95126.31
2022-08-23T09:44:45.686Z,95119.28
2022-08-23T09:47:56.680Z,95129.53
2022-08-23T09:51:19.335Z,95121.47
2022-08-23T09:54:34.555Z,95134.09
2022-08-23T09:57:49.519Z,95126.81
2022-08-23T10:01:15.414Z,95127.25
2022-08-23T10:04:43.886Z,95126.78
2022-08-23T10:08:03.603Z,95125.50
2022-08-23T10:11:20.340Z,95124.28
2022-08-23T10:14:33.847Z,95120.44
2022-08-23T10:17:55.842Z,95131.91
2022-08-23T10:21:21.146Z,95118.31
2022-08-23T10:24:47.887Z,95116.50
2022-08-23T10:28:35.739Z,95123.88
2022-08-23T10:31:59.782Z,95117.00
2022-08-23T10:35:39.046Z,95109.81
2022-08-23T10:38:57.842Z,95117.06
2022-08-23T10:42:20.052Z,95110.06
2022-08-23T10:45:34.025Z,95104.00
2022-08-23T10:48:55.729Z,95112.03
2022-08-23T10:52:13.822Z,95110.78
2022-08-23T10:55:44.247Z,95115.75
2022-08-23T10:59:00.774Z,95107.34
2022-08-23T11:02:29.067Z,95100.56
2022-08-23T11:06:52.116Z,95103.56
2022-08-23T11:10:17.037Z,95100.38
2022-08-23T11:13:34.985Z,95101.28
2022-08-23T11:16:48.698Z,95104.72
2022-08-23T11:20:02.239Z,95097.13
2022-08-23T11:23:17.495Z,95085.72
2022-08-23T11:27:07.441Z,95082.34
2022-08-23T11:30:52.853Z,95085.56
2022-08-23T11:34:22.388Z,95087.53
2022-08-23T11:38:00.453Z,95084.38
2022-08-23T11:41:27.650Z,95098.78
2022-08-23T11:44:48.104Z,95097.44
2022-08-23T11:48:16.450Z,95093.31
2022-08-23T11:51:39.171Z,95090.97
2022-08-23T11:55:20.840Z,95097.50
2022-08-23T11:58:52.402Z,95097.88
2022-08-23T12:02:32.252Z,95086.84
2022-08-23T12:06:10.121Z,95087.09
2022-08-23T12:09:57.399Z,95089.97
2022-08-23T12:13:32.868Z,95088.94
2022-08-23T12:16:44.277Z,95090.88
2022-08-23T12:20:17.210Z,95086.59
2022-08-23T12:23:27.289Z,95089.72
2022-08-23T12:26:50.241Z,95074.59
2022-08-23T12:30:06.674Z,95086.41
2022-08-23T12:33:33.906Z,95090.78
2022-08-23T12:37:06.492Z,95085.31
2022-08-23T12:40:31.422Z,95093.19
2022-08-23T12:44:01.281Z,95089.47
2022-08-23T12:47:18.162Z,95080.00
2022-08-23T12:50:34.668Z,95074.22
2022-08-23T12:53:46.281Z,95077.00
2022-08-23T12:56:55.972Z,95082.22
2022-08-23T13:00:22.044Z,95077.34
2022-08-23T13:03:36.171Z,95072.63
2022-08-23T13:06:50.009Z,95068.94
2022-08-23T13:10:02.369Z,95065.44
2022-08-23T13:13:16.106Z,95059.81
2022-08-23T13:16:44.296Z,95060.91
2022-08-23T13:19:55.312Z,95059.81
2022-08-23T13:23:07.364Z,95054.81
2022-08-23T13:26:47.049Z,95056.84
2022-08-23T13:30:00.155Z,95057.03
2022-08-23T13:33:23.653Z,95054.91
2022-08-23T13:36:33.375Z,95046.44
2022-08-23T13:39:49.723Z,95048.06
2022-08-23T13:43:10.034Z,95040.50
2022-08-23T13:46:30.558Z,95043.97
2022-08-23T13:49:44.513Z,95043.59
2022-08-23T13:53:15.418Z,95044.00
2022-08-23T13:56:27.037Z,95036.84
2022-08-23T13:59:40.699Z,95045.91
2022-08-23T14:02:53.538Z,95040.28
2022-08-23T14:06:03.905Z,95040.41
2022-08-23T14:09:12.264Z,95041.91
2022-08-23T14:12:27.900Z,95043.75
2022-08-23T14:22:37.500Z,95023.50
2022-08-23T14:25:45.916Z,95023.75
2022-08-23T14:28:56.168Z,95024.09
2022-08-23T14:32:05.499Z,95027.09
2022-08-23T14:35:13.742Z,95024.28
2022-08-23T14:38:23.586Z,95027.84
2022-08-23T14:41:33.294Z,95020.03
2022-08-23T14:44:41.830Z,95021.63
2022-08-23T14:47:50.187Z,95025.75
2022-08-23T14:50:59.871Z,95021.09
2022-08-23T14:54:17.969Z,95020.72
2022-08-23T14:57:26.356Z,95028.25
2022-08-23T15:00:38.888Z,95031.03
2022-08-23T15:03:48.202Z,95033.56
2022-08-23T15:07:17.192Z,95026.97
2022-08-23T15:14:00.078Z,95025.38
2022-08-23T15:17:12.262Z,95024.22
2022-08-23T15:20:22.995Z,95040.03
2022-08-23T15:23:32.317Z,95026.38
2022-08-23T15:26:43.110Z,95024.09
2022-08-23T15:29:51.331Z,95027.66
2022-08-23T15:32:59.683Z,95021.59
2022-08-23T15:36:11.657Z,95021.06
2022-08-23T15:39:19.966Z,95021.59
2022-08-23T15:42:33.159Z,95023.50
2022-08-23T15:45:42.601Z,95028.16
2022-08-23T15:48:58.363Z,95030.59
2022-08-23T15:52:06.954Z,95023.78
2022-08-23T15:55:15.777Z,95024.53
2022-08-23T15:58:27.906Z,95027.53
2022-08-23T16:01:36.390Z,95032.19
2022-08-23T16:04:44.978Z,95026.22
2022-08-23T16:07:57.912Z,95024.03
2022-08-23T16:11:12.248Z,95022.78
2022-08-23T16:14:22.114Z,95018.88
2022-08-23T16:17:31.178Z,95015.63
2022-08-23T16:20:40.414Z,95019.16
2022-08-23T16:23:49.307Z,95029.38
2022-08-23T16:26:57.650Z,95023.25
2022-08-23T16:30:12.583Z,95029.25
2022-08-23T16:33:22.175Z,95032.31
2022-08-23T16:36:31.269Z,95032.72
2022-08-23T16:39:40.655Z,95033.22
2022-08-23T16:42:49.254Z,95029.41
2022-08-23T16:46:08.275Z,95035.69
2022-08-23T16:49:19.172Z,95032.78
2022-08-23T16:52:34.446Z,95036.78
2022-08-23T16:55:43.798Z,95035.72
2022-08-23T16:58:52.360Z,95046.41
2022-08-23T17:02:10.738Z,95039.59
2022-08-23T17:05:21.100Z,95049.66
2022-08-23T17:08:29.802Z,95052.03
2022-08-23T17:11:39.837Z,95055.53
2022-08-23T17:14:49.147Z,95052.22
2022-08-23T17:18:00.889Z,95053.22
2022-08-23T17:21:09.563Z,95057.91
2022-08-23T17:24:18.024Z,95060.41
2022-08-23T17:27:27.078Z,95054.78
2022-08-23T17:30:35.770Z,95061.56
2022-08-23T17:33:46.379Z,95060.16
2022-08-23T17:36:56.747Z,95060.63
2022-08-23T17:40:07.121Z,95059.59
2022-08-23T17:43:15.676Z,95060.03
2022-08-23T17:46:24.660Z,95067.06
2022-08-23T17:49:34.254Z,95068.28
2022-08-23T17:52:45.497Z,95077.25
2022-08-23T17:55:55.032Z,95075.97
2022-08-23T17:59:05.643Z,95084.59
2022-08-23T18:02:14.266Z,95094.69
2022-08-23T18:05:23.886Z,95091.63
2022-08-23T18:08:32.209Z,95093.56
2022-08-23T18:11:40.740Z,95097.03
2022-08-23T18:14:48.919Z,95099.69
2022-08-23T18:17:59.125Z,95104.66
2022-08-23T18:21:12.635Z,95098.06
2022-08-23T18:24:21.619Z,95107.22
2022-08-23T18:27:48.130Z,95117.53
2022-08-23T18:30:57.738Z,95112.84
2022-08-23T18:34:06.069Z,95125.03
2022-08-23T18:37:17.243Z,95126.88
2022-08-23T18:40:26.692Z,95124.44
2022-08-23T18:43:37.171Z,95125.09
2022-08-23T18:46:47.498Z,95132.72
2022-08-23T18:49:55.806Z,95129.56
2022-08-23T18:53:06.070Z,95144.00
2022-08-23T18:56:14.235Z,95146.97
2022-08-23T18:59:22.401Z,95145.72
2022-08-23T19:02:30.868Z,95145.63
2022-08-23T19:05:42.398Z,95147.44
2022-08-23T19:08:53.007Z,95155.00
2022-08-23T19:12:02.187Z,95159.09
2022-08-23T19:15:12.692Z,95163.59
2022-08-23T19:18:21.106Z,95174.25
2022-08-23T19:21:29.552Z,95164.97
2022-08-23T19:24:39.587Z,95177.94
2022-08-23T19:27:48.561Z,95176.59
2022-08-23T19:30:57.163Z,95181.56
2022-08-23T19:34:06.082Z,95181.78
2022-08-23T19:37:22.629Z,95186.41
2022-08-23T19:40:32.821Z,95188.47
2022-08-23T19:43:41.439Z,95187.53
2022-08-23T19:46:50.181Z,95194.19
2022-08-23T19:49:58.503Z,95195.72
2022-08-23T19:53:08.484Z,95189.56
2022-08-23T19:56:18.928Z,95194.03
2022-08-23T19:59:31.584Z,95199.91
2022-08-23T20:02:40.050Z,95207.91
2022-08-23T20:05:48.709Z,95205.88
2022-08-23T20:08:58.225Z,95205.00
2022-08-23T20:12:08.601Z,95209.78
2022-08-23T20:15:17.301Z,95210.78
2022-08-23T20:18:25.608Z,95214.59
2022-08-23T20:21:34.401Z,95214.91
2022-08-23T20:24:51.543Z,95224.25
2022-08-23T20:28:05.082Z,95219.34
2022-08-23T20:31:18.895Z,95229.81
2022-08-23T20:34:28.853Z,95220.97
2022-08-23T20:37:37.728Z,95226.75
2022-08-23T20:40:45.919Z,95227.50
2022-08-23T20:43:57.218Z,95234.66
2022-08-23T20:47:06.087Z,95220.91
2022-08-23T20:50:14.496Z,95226.00
2022-08-23T20:53:22.699Z,95235.03
2022-08-23T20:56:30.911Z,95232.19
2022-08-23T20:59:44.395Z,95231.28
2022-08-23T21:02:53.427Z,95234.28
2022-08-23T21:06:07.245Z,95232.41
2022-08-23T21:09:19.309Z,95223.94
2022-08-23T21:12:27.474Z,95230.25
2022-08-23T21:15:38.488Z,95222.56
2022-08-23T21:18:47.173Z,95225.25
2022-08-23T21:21:55.475Z,95229.31
2022-08-23T21:25:03.690Z,95228.28
2022-08-23T21:28:12.794Z,95231.47
2022-08-23T21:31:25.871Z,95223.72
2022-08-23T21:34:34.709Z,95227.78
2022-08-23T21:37:43.041Z,95224.16
2022-08-23T21:40:58.091Z,95217.03
2022-08-23T21:44:09.525Z,95213.94
2022-08-23T21:47:19.602Z,95218.09
2022-08-23T21:50:28.623Z,95218.78
2022-08-23T21:53:39.512Z,95206.09
2022-08-23T21:56:48.538Z,95207.06
2022-08-23T21:59:57.092Z,95208.53
2022-08-23T22:03:07.051Z,95203.88
2022-08-23T22:06:18.818Z,95205.78
2022-08-23T22:09:31.110Z,95211.13
2022-08-23T22:12:40.436Z,95206.72
2022-08-23T22:15:48.893Z,95204.16
2022-08-23T22:18:58.435Z,95208.72
2022-08-23T22:22:06.824Z,95219.75
2022-08-23T22:25:18.580Z,95214.06
2022-08-23T22:28:27.292Z,95211.47
2022-08-23T22:31:39.477Z,95214.56
2022-08-23T22:34:49.824Z,95201.31
2022-08-23T22:38:13.269Z,95209.78
2022-08-23T22:41:27.166Z,95208.13
2022-08-23T22:44:35.591Z,95204.94
2022-08-23T22:47:43.700Z,95207.31
2022-08-23T22:51:06.214Z,95209.56
2022-08-23T22:54:15.357Z,95205.59
2022-08-23T22:57:23.540Z,95209.78
2022-08-23T23:00:31.665Z,95214.72
2022-08-23T23:03:41.399Z,95200.50
2022-08-23T23:06:51.984Z,95205.78
2022-08-23T23:10:00.597Z,95205.00
2022-08-23T23:13:08.806Z,95204.91
2022-08-23T23:16:21.543Z,95195.25
2022-08-23T23:19:47.465Z,95199.03
2022-08-23T23:22:57.164Z,95199.28
2022-08-23T23:26:08.079Z,95199.88
2022-08-23T23:29:17.149Z,95202.03
2022-08-23T23:32:25.253Z,95193.06
2022-08-23T23:35:34.686Z,95196.69
2022-08-23T23:38:44.333Z,95194.69
2022-08-23T23:41:52.714Z,95196.31
2022-08-23T23:45:00.899Z,95194.75
2022-08-23T23:48:09.501Z,95195.09
2022-08-23T23:51:21.691Z,95192.31
2022-08-23T23:54:33.710Z,95199.16
2022-08-23T23:57:42.283Z,95199.78
